Aviation Digital Data Service (ADDS)

Output produced by METARs form (2319 UTC 24 May 2018)
found at http://aviationweather.gov/adds/metars/
 
KPHF 241734Z 2418/2518 01005KT P6SM SKC 
     FM242100 06006KT P6SM SKC 
     FM250000 VRB03KT P6SM SKC 
     FM251500 21008KT P6SM SKC